LYH weather

La Yesca de Hermosillo Airport
Hermosillo, Sonora, Mexico

Public forecast

Using degrees Celsius for public forecast. Weather courtesy of forecast.io.

Closest aviation weather report (METAR) to La Yesca de Hermosillo Airport

Closest report is General Ignacio P. Garcia International Airport, 5.4 nm (10.0 km) N. Retrieved 2020/05/30 18:40 UTC (1 hour ago):

MMHO 301840Z 00000KT 10SM SKC 39/13 A2983 RMK ISOL AC/CI HZY

Closest aviation forecast (TAF) to La Yesca de Hermosillo Airport

Forecast is more than 12 hours old.

Closest forecast is General Ignacio P. Garcia International Airport, 5.4 nm (10.0 km) N. Retrieved 2020/05/30 06:42 UTC (13 hours ago):

TAF MMHO 300436Z 3006/3106 24005KT P6SM SCT020 FM301800 24010KT P6SM SKC FM310100 24005KT P6SM SCT250